sensor_id;sensor_type;location;lat;lon;timestamp;pressure;altitude;pressure_sealevel;temperature;humidity
57094;BME280;42970;50.996;3.706;2023-03-25T00:01:48;74085.22;;;-146.65;67.26
57094;BME280;42970;50.996;3.706;2023-03-25T00:04:14;74077.16;;;-146.65;66.88
57094;BME280;42970;50.996;3.706;2023-03-25T00:06:41;74115.47;;;-146.65;67.28
57094;BME280;42970;50.996;3.706;2023-03-25T00:09:06;74129.59;;;-146.65;67.79
57094;BME280;42970;50.996;3.706;2023-03-25T00:11:32;74165.88;;;-146.65;68.20
57094;BME280;42970;50.996;3.706;2023-03-25T00:13:57;74093.31;;;-146.65;66.49
57094;BME280;42970;50.996;3.706;2023-03-25T00:16:22;74133.63;;;-146.65;67.16
57094;BME280;42970;50.996;3.706;2023-03-25T00:18:48;74119.50;;;-146.65;67.79
57094;BME280;42970;50.996;3.706;2023-03-25T00:21:14;74155.81;;;-146.65;68.07
57094;BME280;42970;50.996;3.706;2023-03-25T00:23:40;74159.84;;;-146.65;68.62
57094;BME280;42970;50.996;3.706;2023-03-25T00:26:05;74109.44;;;-146.65;67.75
57094;BME280;42970;50.996;3.706;2023-03-25T00:28:32;74230.41;;;-146.65;71.40
57094;BME280;42970;50.996;3.706;2023-03-25T00:30:58;74131.59;;;-146.65;70.30
57094;BME280;42970;50.996;3.706;2023-03-25T00:33:25;74145.72;;;-146.65;71.09
57094;BME280;42970;50.996;3.706;2023-03-25T00:35:51;74121.53;;;-146.65;70.75
57094;BME280;42970;50.996;3.706;2023-03-25T00:38:19;74145.72;;;-146.65;71.41
57094;BME280;42970;50.996;3.706;2023-03-25T00:40:44;74149.75;;;-146.65;71.59
57094;BME280;42970;50.996;3.706;2023-03-25T00:43:10;74180.00;;;-146.65;71.95
57094;BME280;42970;50.996;3.706;2023-03-25T00:45:36;74188.06;;;-146.65;72.26
57094;BME280;42970;50.996;3.706;2023-03-25T00:48:01;74145.72;;;-146.65;71.69
57094;BME280;42970;50.996;3.706;2023-03-25T00:50:27;74163.88;;;-146.65;72.20
57094;BME280;42970;50.996;3.706;2023-03-25T00:52:52;74180.00;;;-146.65;71.62
57094;BME280;42970;50.996;3.706;2023-03-25T00:55:18;74202.19;;;-146.65;72.18
57094;BME280;42970;50.996;3.706;2023-03-25T00:57:44;74145.72;;;-146.65;72.11
57094;BME280;42970;50.996;3.706;2023-03-25T01:00:11;74109.44;;;-146.65;70.96
57094;BME280;42970;50.996;3.706;2023-03-25T01:02:37;74135.63;;;-146.65;72.36
57094;BME280;42970;50.996;3.706;2023-03-25T01:05:06;74161.84;;;-146.65;72.32
57094;BME280;42970;50.996;3.706;2023-03-25T01:07:31;74165.88;;;-146.65;73.10
57094;BME280;42970;50.996;3.706;2023-03-25T01:09:57;74143.72;;;-146.65;72.79
57094;BME280;42970;50.996;3.706;2023-03-25T01:12:23;74151.78;;;-146.65;73.99
57094;BME280;42970;50.996;3.706;2023-03-25T01:14:48;74129.59;;;-146.65;72.78
57094;BME280;42970;50.996;3.706;2023-03-25T01:17:14;74143.72;;;-146.65;72.79
57094;BME280;42970;50.996;3.706;2023-03-25T01:19:39;74085.22;;;-146.65;71.37
57094;BME280;42970;50.996;3.706;2023-03-25T01:22:05;74097.34;;;-146.65;71.95
57094;BME280;42970;50.996;3.706;2023-03-25T01:24:30;74016.69;;;-146.65;70.18
57094;BME280;42970;50.996;3.706;2023-03-25T01:26:56;74014.66;;;-146.65;69.37
57094;BME280;42970;50.996;3.706;2023-03-25T01:29:21;74014.66;;;-146.65;69.20
57094;BME280;42970;50.996;3.706;2023-03-25T01:31:47;73992.47;;;-146.65;68.63
57094;BME280;42970;50.996;3.706;2023-03-25T01:34:13;74073.13;;;-146.65;69.81
57094;BME280;42970;50.996;3.706;2023-03-25T01:36:39;74036.84;;;-146.65;68.10
57094;BME280;42970;50.996;3.706;2023-03-25T01:39:06;73976.34;;;-146.65;67.58
57094;BME280;42970;50.996;3.706;2023-03-25T01:41:32;73994.50;;;-146.65;67.37
57094;BME280;42970;50.996;3.706;2023-03-25T01:43:59;73976.34;;;-146.65;67.22
57094;BME280;42970;50.996;3.706;2023-03-25T01:46:25;73946.09;;;-146.65;66.17
57094;BME280;42970;50.996;3.706;2023-03-25T01:48:50;73966.28;;;-146.65;66.48
57094;BME280;42970;50.996;3.706;2023-03-25T01:51:17;74000.53;;;-146.65;67.43
57094;BME280;42970;50.996;3.706;2023-03-25T01:53:44;73962.25;;;-146.65;66.45
57094;BME280;42970;50.996;3.706;2023-03-25T01:56:10;73988.44;;;-146.65;66.76
57094;BME280;42970;50.996;3.706;2023-03-25T01:58:37;73978.38;;;-146.65;66.50
57094;BME280;42970;50.996;3.706;2023-03-25T02:01:03;73972.31;;;-146.65;65.94
57094;BME280;42970;50.996;3.706;2023-03-25T02:03:29;74018.69;;;-146.65;66.90
57094;BME280;42970;50.996;3.706;2023-03-25T02:06:02;73952.16;;;-146.65;65.93
57094;BME280;42970;50.996;3.706;2023-03-25T02:08:33;73952.16;;;-146.65;65.05
57094;BME280;42970;50.996;3.706;2023-03-25T02:11:02;73974.34;;;-146.65;65.58
57094;BME280;42970;50.996;3.706;2023-03-25T02:13:28;73962.25;;;-146.65;65.53
57094;BME280;42970;50.996;3.706;2023-03-25T02:15:57;74030.78;;;-146.65;67.25
57094;BME280;42970;50.996;3.706;2023-03-25T02:18:38;74061.03;;;-146.65;68.23
57094;BME280;42970;50.996;3.706;2023-03-25T02:21:15;74008.63;;;-146.65;67.79
57094;BME280;42970;50.996;3.706;2023-03-25T02:23:57;74018.69;;;-146.65;67.46
57094;BME280;42970;50.996;3.706;2023-03-25T02:29:06;74026.75;;;-146.65;68.41
57094;BME280;42970;50.996;3.706;2023-03-25T02:36:53;74022.72;;;-146.65;68.33
57094;BME280;42970;50.996;3.706;2023-03-25T02:42:30;74087.25;;;-146.65;70.64
57094;BME280;42970;50.996;3.706;2023-03-25T02:44:46;74046.91;;;-146.65;70.18
57094;BME280;42970;50.996;3.706;2023-03-25T02:47:16;74036.84;;;-146.65;69.46
57094;BME280;42970;50.996;3.706;2023-03-25T02:49:53;74109.44;;;-146.65;72.42
57094;BME280;42970;50.996;3.706;2023-03-25T02:52:23;74073.13;;;-146.65;71.74
57094;BME280;42970;50.996;3.706;2023-03-25T02:54:49;74038.84;;;-146.65;70.91
57094;BME280;42970;50.996;3.706;2023-03-25T02:57:18;73976.34;;;-146.65;68.33
57094;BME280;42970;50.996;3.706;2023-03-25T02:59:45;74022.72;;;-146.65;69.96
57094;BME280;42970;50.996;3.706;2023-03-25T03:02:11;74036.84;;;-146.65;70.31
57094;BME280;42970;50.996;3.706;2023-03-25T03:04:48;74044.91;;;-146.65;69.30
57094;BME280;42970;50.996;3.706;2023-03-25T03:07:46;74004.59;;;-146.65;68.89
57094;BME280;42970;50.996;3.706;2023-03-25T03:10:19;74089.25;;;-146.65;70.88
57094;BME280;42970;50.996;3.706;2023-03-25T03:12:52;74014.66;;;-146.65;68.49
57094;BME280;42970;50.996;3.706;2023-03-25T03:15:26;74032.81;;;-146.65;70.65
57094;BME280;42970;50.996;3.706;2023-03-25T03:20:38;73980.38;;;-146.65;68.30
57094;BME280;42970;50.996;3.706;2023-03-25T03:23:23;73978.38;;;-146.65;67.20
57094;BME280;42970;50.996;3.706;2023-03-25T03:26:14;73988.44;;;-146.65;67.26
57094;BME280;42970;50.996;3.706;2023-03-25T03:28:41;73996.50;;;-146.65;66.35
57094;BME280;42970;50.996;3.706;2023-03-25T03:31:14;73996.50;;;-146.65;66.96
57094;BME280;42970;50.996;3.706;2023-03-25T03:33:55;74044.91;;;-146.65;67.22
57094;BME280;42970;50.996;3.706;2023-03-25T03:36:24;74004.59;;;-146.65;65.75
57094;BME280;42970;50.996;3.706;2023-03-25T03:38:53;73996.50;;;-146.65;65.41
57094;BME280;42970;50.996;3.706;2023-03-25T03:41:22;73996.50;;;-146.65;65.02
57094;BME280;42970;50.996;3.706;2023-03-25T03:44:02;73956.19;;;-146.65;64.29
57094;BME280;42970;50.996;3.706;2023-03-25T03:49:01;74052.97;;;-146.65;66.62
57094;BME280;42970;50.996;3.706;2023-03-25T03:51:37;73994.50;;;-146.65;64.93
57094;BME280;42970;50.996;3.706;2023-03-25T03:54:11;73968.28;;;-146.65;63.76
57094;BME280;42970;50.996;3.706;2023-03-25T03:56:44;74052.97;;;-146.65;64.04
57094;BME280;42970;50.996;3.706;2023-03-25T04:01:54;74069.09;;;-146.65;64.46
57094;BME280;42970;50.996;3.706;2023-03-25T04:04:23;74050.97;;;-146.65;64.20
57094;BME280;42970;50.996;3.706;2023-03-25T04:12:07;74048.94;;;-146.65;63.73
57094;BME280;42970;50.996;3.706;2023-03-25T04:14:35;74069.09;;;-146.65;63.56
57094;BME280;42970;50.996;3.706;2023-03-25T04:17:03;74067.09;;;-146.65;63.38
57094;BME280;42970;50.996;3.706;2023-03-25T04:19:28;74093.31;;;-146.65;63.93
57094;BME280;42970;50.996;3.706;2023-03-25T04:21:58;74008.63;;;-146.65;61.75
57094;BME280;42970;50.996;3.706;2023-03-25T04:24:23;74085.22;;;-146.65;63.35
57094;BME280;42970;50.996;3.706;2023-03-25T04:26:49;74077.16;;;-146.65;62.76
57094;BME280;42970;50.996;3.706;2023-03-25T04:29:17;74073.13;;;-146.65;63.15
57094;BME280;42970;50.996;3.706;2023-03-25T04:31:43;74145.72;;;-146.65;63.82
57094;BME280;42970;50.996;3.706;2023-03-25T04:34:13;74063.06;;;-146.65;62.68
57094;BME280;42970;50.996;3.706;2023-03-25T04:36:39;74093.31;;;-146.65;63.13
57094;BME280;42970;50.996;3.706;2023-03-25T04:39:07;74046.91;;;-146.65;61.39
57094;BME280;42970;50.996;3.706;2023-03-25T04:41:32;74057.00;;;-146.65;61.57
57094;BME280;42970;50.996;3.706;2023-03-25T04:43:58;74081.19;;;-146.65;62.25
57094;BME280;42970;50.996;3.706;2023-03-25T04:46:23;74089.25;;;-146.65;62.29
57094;BME280;42970;50.996;3.706;2023-03-25T04:48:49;74089.25;;;-146.65;62.34
57094;BME280;42970;50.996;3.706;2023-03-25T04:51:14;74105.41;;;-146.65;62.48
57094;BME280;42970;50.996;3.706;2023-03-25T04:53:40;74109.44;;;-146.65;63.17
57094;BME280;42970;50.996;3.706;2023-03-25T04:56:06;74095.31;;;-146.65;62.86
57094;BME280;42970;50.996;3.706;2023-03-25T04:58:37;74095.31;;;-146.65;62.85
57094;BME280;42970;50.996;3.706;2023-03-25T05:01:02;74061.03;;;-146.65;62.28
57094;BME280;42970;50.996;3.706;2023-03-25T05:03:30;74061.03;;;-146.65;61.22
57094;BME280;42970;50.996;3.706;2023-03-25T05:05:55;74036.84;;;-146.65;61.02
57094;BME280;42970;50.996;3.706;2023-03-25T05:08:20;74071.13;;;-146.65;61.18
57094;BME280;42970;50.996;3.706;2023-03-25T05:10:46;74097.34;;;-146.65;61.40
57094;BME280;42970;50.996;3.706;2023-03-25T05:13:12;74040.88;;;-146.65;60.58
57094;BME280;42970;50.996;3.706;2023-03-25T05:15:37;74107.41;;;-146.65;61.96
57094;BME280;42970;50.996;3.706;2023-03-25T05:18:11;74101.38;;;-146.65;61.12
57094;BME280;42970;50.996;3.706;2023-03-25T05:20:38;74077.16;;;-146.65;61.05
57094;BME280;42970;50.996;3.706;2023-03-25T05:23:05;74097.34;;;-146.65;61.31
57094;BME280;42970;50.996;3.706;2023-03-25T05:25:30;74067.09;;;-146.65;60.69
57094;BME280;42970;50.996;3.706;2023-03-25T05:27:58;74061.03;;;-146.65;60.64
57094;BME280;42970;50.996;3.706;2023-03-25T05:30:26;74119.50;;;-146.65;61.82
57094;BME280;42970;50.996;3.706;2023-03-25T05:32:57;74109.44;;;-146.65;61.47
57094;BME280;42970;50.996;3.706;2023-03-25T05:35:26;74109.44;;;-146.65;61.94
57094;BME280;42970;50.996;3.706;2023-03-25T05:37:52;74119.50;;;-146.65;62.09
57094;BME280;42970;50.996;3.706;2023-03-25T05:40:17;74089.25;;;-146.65;61.16
57094;BME280;42970;50.996;3.706;2023-03-25T05:42:43;74081.19;;;-146.65;61.77
57094;BME280;42970;50.996;3.706;2023-03-25T05:45:13;74069.09;;;-146.65;61.02
57094;BME280;42970;50.996;3.706;2023-03-25T05:47:40;74061.03;;;-146.65;61.36
57094;BME280;42970;50.996;3.706;2023-03-25T05:50:05;74077.16;;;-146.65;61.64
57094;BME280;42970;50.996;3.706;2023-03-25T05:52:32;74069.09;;;-146.65;61.58
57094;BME280;42970;50.996;3.706;2023-03-25T05:54:57;74032.81;;;-146.65;60.99
57094;BME280;42970;50.996;3.706;2023-03-25T05:57:23;74065.06;;;-146.65;61.21
57094;BME280;42970;50.996;3.706;2023-03-25T05:59:48;74052.97;;;-146.65;61.43
57094;BME280;42970;50.996;3.706;2023-03-25T06:02:14;74069.09;;;-146.65;61.42
57094;BME280;42970;50.996;3.706;2023-03-25T06:04:40;74063.06;;;-146.65;61.09
57094;BME280;42970;50.996;3.706;2023-03-25T06:07:07;74057.00;;;-146.65;60.86
57094;BME280;42970;50.996;3.706;2023-03-25T06:09:38;74044.91;;;-146.65;60.62
57094;BME280;42970;50.996;3.706;2023-03-25T06:12:13;74026.75;;;-146.65;60.75
57094;BME280;42970;50.996;3.706;2023-03-25T06:14:39;74006.59;;;-146.65;59.73
57094;BME280;42970;50.996;3.706;2023-03-25T06:17:07;74063.06;;;-146.65;61.26
57094;BME280;42970;50.996;3.706;2023-03-25T06:19:32;74065.06;;;-146.65;61.77
57094;BME280;42970;50.996;3.706;2023-03-25T06:22:03;74085.22;;;-146.65;62.00
57094;BME280;42970;50.996;3.706;2023-03-25T06:24:28;73994.50;;;-146.65;60.28
57094;BME280;42970;50.996;3.706;2023-03-25T06:26:53;73980.38;;;-146.65;59.40
57094;BME280;42970;50.996;3.706;2023-03-25T06:29:18;73960.22;;;-146.65;58.11
57094;BME280;42970;50.996;3.706;2023-03-25T06:31:44;73976.34;;;-146.65;58.85
57094;BME280;42970;50.996;3.706;2023-03-25T06:34:10;73960.22;;;-146.65;58.57
57094;BME280;42970;50.996;3.706;2023-03-25T06:36:35;73992.47;;;-146.65;59.27
57094;BME280;42970;50.996;3.706;2023-03-25T06:39:00;73982.41;;;-146.65;58.22
57094;BME280;42970;50.996;3.706;2023-03-25T06:41:26;73952.16;;;-146.65;57.97
57094;BME280;42970;50.996;3.706;2023-03-25T06:43:52;73998.53;;;-146.65;58.22
57094;BME280;42970;50.996;3.706;2023-03-25T06:46:17;73923.94;;;-146.65;56.77
57094;BME280;42970;50.996;3.706;2023-03-25T06:48:42;74057.00;;;-146.65;60.27
57094;BME280;42970;50.996;3.706;2023-03-25T06:51:07;74093.31;;;-146.65;61.08
57094;BME280;42970;50.996;3.706;2023-03-25T06:53:33;74020.72;;;-146.65;59.52
57094;BME280;42970;50.996;3.706;2023-03-25T06:55:58;73988.44;;;-146.65;59.19
57094;BME280;42970;50.996;3.706;2023-03-25T06:58:23;74022.72;;;-146.65;59.03
57094;BME280;42970;50.996;3.706;2023-03-25T07:00:52;74032.81;;;-146.65;60.19
57094;BME280;42970;50.996;3.706;2023-03-25T07:03:18;73982.41;;;-146.65;59.03
57094;BME280;42970;50.996;3.706;2023-03-25T07:05:43;74012.66;;;-146.65;59.26
57094;BME280;42970;50.996;3.706;2023-03-25T07:08:08;73996.50;;;-146.65;59.09
57094;BME280;42970;50.996;3.706;2023-03-25T07:10:34;73946.09;;;-146.65;58.10
57094;BME280;42970;50.996;3.706;2023-03-25T07:12:59;73938.03;;;-146.65;57.40
57094;BME280;42970;50.996;3.706;2023-03-25T07:15:25;73917.88;;;-146.65;57.15
57094;BME280;42970;50.996;3.706;2023-03-25T07:17:50;73907.81;;;-146.65;56.07
57094;BME280;42970;50.996;3.706;2023-03-25T07:20:16;73978.38;;;-146.65;58.03
57094;BME280;42970;50.996;3.706;2023-03-25T07:22:42;74050.97;;;-146.65;58.93
57094;BME280;42970;50.996;3.706;2023-03-25T07:25:07;73992.47;;;-146.65;58.50
57094;BME280;42970;50.996;3.706;2023-03-25T07:27:33;73982.41;;;-146.65;57.87
57094;BME280;42970;50.996;3.706;2023-03-25T07:29:58;74016.69;;;-146.65;59.50
57094;BME280;42970;50.996;3.706;2023-03-25T07:32:23;73932.00;;;-146.65;56.70
57094;BME280;42970;50.996;3.706;2023-03-25T07:34:48;73956.19;;;-146.65;58.04
57094;BME280;42970;50.996;3.706;2023-03-25T07:37:14;73970.31;;;-146.65;58.07
57094;BME280;42970;50.996;3.706;2023-03-25T07:39:40;73974.34;;;-146.65;58.14
57094;BME280;42970;50.996;3.706;2023-03-25T07:42:05;73968.28;;;-146.65;58.08
57094;BME280;42970;50.996;3.706;2023-03-25T07:44:31;73927.97;;;-146.65;57.39
57094;BME280;42970;50.996;3.706;2023-03-25T07:46:57;73964.25;;;-146.65;57.51
57094;BME280;42970;50.996;3.706;2023-03-25T07:49:22;73917.88;;;-146.65;56.64
57094;BME280;42970;50.996;3.706;2023-03-25T07:51:48;73911.84;;;-146.65;56.67
57094;BME280;42970;50.996;3.706;2023-03-25T07:54:14;73946.09;;;-146.65;57.42
57094;BME280;42970;50.996;3.706;2023-03-25T07:56:39;73986.44;;;-146.65;58.93
57094;BME280;42970;50.996;3.706;2023-03-25T07:59:05;73958.22;;;-146.65;58.25
57094;BME280;42970;50.996;3.706;2023-03-25T08:01:30;73998.53;;;-146.65;59.22
57094;BME280;42970;50.996;3.706;2023-03-25T08:03:56;74079.19;;;-146.65;61.42
57094;BME280;42970;50.996;3.706;2023-03-25T08:06:22;74042.88;;;-146.65;60.56
57094;BME280;42970;50.996;3.706;2023-03-25T08:08:47;74008.63;;;-146.65;60.35
57094;BME280;42970;50.996;3.706;2023-03-25T08:11:13;73994.50;;;-146.65;59.98
57094;BME280;42970;50.996;3.706;2023-03-25T08:13:39;74030.78;;;-146.65;60.01
57094;BME280;42970;50.996;3.706;2023-03-25T08:16:09;74012.66;;;-146.65;59.97
57094;BME280;42970;50.996;3.706;2023-03-25T08:18:38;74020.72;;;-146.65;59.68
57094;BME280;42970;50.996;3.706;2023-03-25T08:21:04;74000.53;;;-146.65;59.03
57094;BME280;42970;50.996;3.706;2023-03-25T08:23:29;73942.06;;;-146.65;58.16
57094;BME280;42970;50.996;3.706;2023-03-25T08:25:55;73986.44;;;-146.65;58.46
57094;BME280;42970;50.996;3.706;2023-03-25T08:28:21;73970.31;;;-146.65;57.31
57094;BME280;42970;50.996;3.706;2023-03-25T08:30:48;73954.19;;;-146.65;57.40
57094;BME280;42970;50.996;3.706;2023-03-25T08:33:13;74008.63;;;-146.65;56.73
57094;BME280;42970;50.996;3.706;2023-03-25T08:35:39;74018.69;;;-146.65;58.10
57094;BME280;42970;50.996;3.706;2023-03-25T08:38:06;74061.03;;;-146.65;58.97
57094;BME280;42970;50.996;3.706;2023-03-25T08:40:32;73994.50;;;-146.65;57.45
57094;BME280;42970;50.996;3.706;2023-03-25T08:42:58;74014.66;;;-146.65;57.35
57094;BME280;42970;50.996;3.706;2023-03-25T08:45:23;74028.78;;;-146.65;57.71
57094;BME280;42970;50.996;3.706;2023-03-25T08:47:49;74034.81;;;-146.65;57.85
57094;BME280;42970;50.996;3.706;2023-03-25T08:50:14;74067.09;;;-146.65;58.40
57094;BME280;42970;50.996;3.706;2023-03-25T08:52:39;74036.84;;;-146.65;59.59
57094;BME280;42970;50.996;3.706;2023-03-25T08:55:06;74040.88;;;-146.65;59.55
57094;BME280;42970;50.996;3.706;2023-03-25T08:57:35;74032.81;;;-146.65;59.00
57094;BME280;42970;50.996;3.706;2023-03-25T09:00:02;74030.78;;;-146.65;57.50
57094;BME280;42970;50.996;3.706;2023-03-25T09:02:30;73982.41;;;-146.65;56.28
57094;BME280;42970;50.996;3.706;2023-03-25T09:04:56;73988.44;;;-146.65;57.05
57094;BME280;42970;50.996;3.706;2023-03-25T09:07:21;73976.34;;;-146.65;55.56
57094;BME280;42970;50.996;3.706;2023-03-25T09:09:47;73970.31;;;-146.65;55.10
57094;BME280;42970;50.996;3.706;2023-03-25T09:12:12;73988.44;;;-146.65;56.47
57094;BME280;42970;50.996;3.706;2023-03-25T09:14:38;74065.06;;;-146.65;61.91
57094;BME280;42970;50.996;3.706;2023-03-25T09:17:04;74139.66;;;-146.65;66.61
57094;BME280;42970;50.996;3.706;2023-03-25T09:19:34;74190.09;;;-146.65;69.28
57094;BME280;42970;50.996;3.706;2023-03-25T09:21:59;74133.63;;;-146.65;68.55
57094;BME280;42970;50.996;3.706;2023-03-25T09:24:25;74109.44;;;-146.65;67.52
57094;BME280;42970;50.996;3.706;2023-03-25T09:26:51;74069.09;;;-146.65;65.66
57094;BME280;42970;50.996;3.706;2023-03-25T09:29:16;74038.84;;;-146.65;64.44
57094;BME280;42970;50.996;3.706;2023-03-25T09:31:41;74048.94;;;-146.65;63.32
57094;BME280;42970;50.996;3.706;2023-03-25T09:34:07;74034.81;;;-146.65;62.50
57094;BME280;42970;50.996;3.706;2023-03-25T09:36:32;73988.44;;;-146.65;61.04
57094;BME280;42970;50.996;3.706;2023-03-25T09:38:57;74012.66;;;-146.65;59.53
57094;BME280;42970;50.996;3.706;2023-03-25T09:46:37;73996.50;;;-146.65;58.54
57094;BME280;42970;50.996;3.706;2023-03-25T09:49:03;73940.06;;;-146.65;57.92
57094;BME280;42970;50.996;3.706;2023-03-25T09:51:31;73917.88;;;-146.65;55.86
57094;BME280;42970;50.996;3.706;2023-03-25T09:54:04;73952.16;;;-146.65;56.84
57094;BME280;42970;50.996;3.706;2023-03-25T09:56:35;73919.91;;;-146.65;58.25
57094;BME280;42970;50.996;3.706;2023-03-25T09:59:05;73887.63;;;-146.65;56.30
57094;BME280;42970;50.996;3.706;2023-03-25T10:12:12;73867.47;;;-146.65;53.59
57094;BME280;42970;50.996;3.706;2023-03-25T10:15:03;73871.50;;;-146.65;54.53
57094;BME280;42970;50.996;3.706;2023-03-25T10:17:50;73889.66;;;-146.65;53.04
57094;BME280;42970;50.996;3.706;2023-03-25T10:20:24;73835.22;;;-146.65;52.08
57094;BME280;42970;50.996;3.706;2023-03-25T10:23:02;73817.06;;;-146.65;51.23
57094;BME280;42970;50.996;3.706;2023-03-25T10:25:32;73887.63;;;-146.65;52.18
57094;BME280;42970;50.996;3.706;2023-03-25T10:27:59;74018.69;;;-146.65;57.84
57094;BME280;42970;50.996;3.706;2023-03-25T10:30:26;74077.16;;;-146.65;58.83
57094;BME280;42970;50.996;3.706;2023-03-25T10:33:01;74016.69;;;-146.65;58.29
57094;BME280;42970;50.996;3.706;2023-03-25T10:35:29;74006.59;;;-146.65;58.38
57094;BME280;42970;50.996;3.706;2023-03-25T10:43:31;74095.31;;;-146.65;58.73
57094;BME280;42970;50.996;3.706;2023-03-25T10:46:11;74157.81;;;-146.65;61.47
57094;BME280;42970;50.996;3.706;2023-03-25T10:48:37;74167.91;;;-146.65;63.66
57094;BME280;42970;50.996;3.706;2023-03-25T10:51:11;74220.31;;;-146.65;65.77
57094;BME280;42970;50.996;3.706;2023-03-25T10:53:38;74057.00;;;-146.65;63.86
57094;BME280;42970;50.996;3.706;2023-03-25T10:56:14;73958.22;;;-146.65;60.00
57094;BME280;42970;50.996;3.706;2023-03-25T10:58:41;73917.88;;;-146.65;60.87
57094;BME280;42970;50.996;3.706;2023-03-25T11:01:14;73944.09;;;-146.65;57.39
57094;BME280;42970;50.996;3.706;2023-03-25T11:03:41;73790.88;;;-146.65;53.96
57094;BME280;42970;50.996;3.706;2023-03-25T11:06:53;73726.34;;;-146.65;53.14
57094;BME280;42970;50.996;3.706;2023-03-25T11:09:11;73722.31;;;-146.65;49.97
57094;BME280;42970;50.996;3.706;2023-03-25T11:11:38;73867.47;;;-146.65;52.76
57094;BME280;42970;50.996;3.706;2023-03-25T11:14:03;73950.13;;;-146.65;55.17
57094;BME280;42970;50.996;3.706;2023-03-25T11:16:32;73847.31;;;-146.65;53.44
57094;BME280;42970;50.996;3.706;2023-03-25T11:19:01;73919.91;;;-146.65;55.52
57094;BME280;42970;50.996;3.706;2023-03-25T11:21:31;73958.22;;;-146.65;55.11
57094;BME280;42970;50.996;3.706;2023-03-25T11:23:57;73871.50;;;-146.65;54.52
57094;BME280;42970;50.996;3.706;2023-03-25T11:26:29;73936.03;;;-146.65;55.07
57094;BME280;42970;50.996;3.706;2023-03-25T11:29:01;73883.59;;;-146.65;53.21
57094;BME280;42970;50.996;3.706;2023-03-25T11:31:32;73889.66;;;-146.65;54.56
57094;BME280;42970;50.996;3.706;2023-03-25T11:39:15;73867.47;;;-146.65;54.84
57094;BME280;42970;50.996;3.706;2023-03-25T11:41:41;73869.50;;;-146.65;52.52
57094;BME280;42970;50.996;3.706;2023-03-25T11:44:07;73744.50;;;-146.65;51.72
57094;BME280;42970;50.996;3.706;2023-03-25T11:46:41;73865.47;;;-146.65;52.26
57094;BME280;42970;50.996;3.706;2023-03-25T11:49:11;73887.63;;;-146.65;52.98
57094;BME280;42970;50.996;3.706;2023-03-25T11:51:40;73934.00;;;-146.65;52.11
57094;BME280;42970;50.996;3.706;2023-03-25T11:54:07;73909.81;;;-146.65;53.88
57094;BME280;42970;50.996;3.706;2023-03-25T11:56:34;73946.09;;;-146.65;51.97
57094;BME280;42970;50.996;3.706;2023-03-25T11:59:01;73956.19;;;-146.65;52.79
57094;BME280;42970;50.996;3.706;2023-03-25T12:01:28;73940.06;;;-146.65;53.00
57094;BME280;42970;50.996;3.706;2023-03-25T12:04:36;73905.78;;;-146.65;52.22
57094;BME280;42970;50.996;3.706;2023-03-25T12:06:52;73932.00;;;-146.65;50.81
57094;BME280;42970;50.996;3.706;2023-03-25T12:09:18;73938.03;;;-146.65;51.47
57094;BME280;42970;50.996;3.706;2023-03-25T12:11:59;73923.94;;;-146.65;52.34
57094;BME280;42970;50.996;3.706;2023-03-25T12:17:04;73883.59;;;-146.65;52.39
57094;BME280;42970;50.996;3.706;2023-03-25T12:22:06;73895.69;;;-146.65;51.50
57094;BME280;42970;50.996;3.706;2023-03-25T12:32:13;73911.84;;;-146.65;51.25
57094;BME280;42970;50.996;3.706;2023-03-25T12:37:25;73998.53;;;-146.65;52.48
57094;BME280;42970;50.996;3.706;2023-03-25T12:50:04;73919.91;;;-146.65;51.32
57094;BME280;42970;50.996;3.706;2023-03-25T13:03:25;74008.63;;;-146.65;57.60
57094;BME280;42970;50.996;3.706;2023-03-25T13:08:28;73905.78;;;-146.65;54.84
57094;BME280;42970;50.996;3.706;2023-03-25T13:10:57;73944.09;;;-146.65;54.04
57094;BME280;42970;50.996;3.706;2023-03-25T13:13:26;73936.03;;;-146.65;55.73
57094;BME280;42970;50.996;3.706;2023-03-25T13:16:06;73919.91;;;-146.65;54.11
57094;BME280;42970;50.996;3.706;2023-03-25T13:18:42;73879.56;;;-146.65;54.81
57094;BME280;42970;50.996;3.706;2023-03-25T13:21:10;73827.16;;;-146.65;53.43
57094;BME280;42970;50.996;3.706;2023-03-25T13:23:38;73907.81;;;-146.65;51.82
57094;BME280;42970;50.996;3.706;2023-03-25T13:26:05;73847.31;;;-146.65;51.69
57094;BME280;42970;50.996;3.706;2023-03-25T13:28:40;73879.56;;;-146.65;49.09
57094;BME280;42970;50.996;3.706;2023-03-25T13:31:20;73889.66;;;-146.65;48.70
57094;BME280;42970;50.996;3.706;2023-03-25T13:33:52;73841.28;;;-146.65;48.29
57094;BME280;42970;50.996;3.706;2023-03-25T13:36:31;73883.59;;;-146.65;48.20
57094;BME280;42970;50.996;3.706;2023-03-25T13:39:12;73835.22;;;-146.65;50.22
57094;BME280;42970;50.996;3.706;2023-03-25T13:41:45;73819.09;;;-146.65;48.74
57094;BME280;42970;50.996;3.706;2023-03-25T13:44:13;73782.78;;;-146.65;47.93
57094;BME280;42970;50.996;3.706;2023-03-25T13:46:51;73829.16;;;-146.65;48.19
57094;BME280;42970;50.996;3.706;2023-03-25T13:49:22;73811.03;;;-146.65;47.54
57094;BME280;42970;50.996;3.706;2023-03-25T13:51:50;73802.97;;;-146.65;47.09
57094;BME280;42970;50.996;3.706;2023-03-25T13:54:22;73807.00;;;-146.65;47.11
57094;BME280;42970;50.996;3.706;2023-03-25T14:02:26;73867.47;;;-146.65;47.77
57094;BME280;42970;50.996;3.706;2023-03-25T14:12:51;73780.78;;;-146.65;49.19
57094;BME280;42970;50.996;3.706;2023-03-25T14:15:21;73871.50;;;-146.65;49.57
57094;BME280;42970;50.996;3.706;2023-03-25T14:17:50;73875.53;;;-146.65;49.52
57094;BME280;42970;50.996;3.706;2023-03-25T14:20:21;73851.34;;;-146.65;48.84
57094;BME280;42970;50.996;3.706;2023-03-25T14:22:52;73867.47;;;-146.65;47.81
57094;BME280;42970;50.996;3.706;2023-03-25T14:25:20;73833.19;;;-146.65;47.80
57094;BME280;42970;50.996;3.706;2023-03-25T14:27:49;73895.69;;;-146.65;47.58
57094;BME280;42970;50.996;3.706;2023-03-25T14:30:22;73895.69;;;-146.65;48.09